Benllech, United Kingdom
Current Conditions -  °F | °C
As of 1:50 PM on Sunday 25 Jan 2015 (Local Time) from EGOV Reporting Station
Haze Haze  
Wind Chill: 41°   Ceiling: 400
Heat Index: 48°   Visibility: 4mi
Dew Point: 48°   Wind: 23mph
Humidity: 100%   Direction: 220°SW
Pressure: 30.24"   Gusts: NA
Location:  53.32°N, 4.23°W
Report Text: EGOV 251350Z AUTO 22020KT 7000 BR OVC004/// 09/09 Q1024
Loading
Personal Weather Stations






























Interactive Weather Map New forecast layout! Learn more

10-Day Weather Forecast

Advertisements
Track Severe Weather on mobile